sensor_id;sensor_type;location;lat;lon;timestamp;P1;durP1;ratioP1;P2;durP2;ratioP2
8889;SDS011;4481;43.406;24.454;2023-04-03T00:00:12;3.60;;;2.70;;
8889;SDS011;4481;43.406;24.454;2023-04-03T00:02:38;2.80;;;2.50;;
8889;SDS011;4481;43.406;24.454;2023-04-03T00:05:07;3.70;;;3.03;;
8889;SDS011;4481;43.406;24.454;2023-04-03T00:07:33;3.77;;;2.70;;
8889;SDS011;4481;43.406;24.454;2023-04-03T00:09:59;3.60;;;2.80;;
8889;SDS011;4481;43.406;24.454;2023-04-03T00:12:25;4.53;;;3.17;;
8889;SDS011;4481;43.406;24.454;2023-04-03T00:14:51;3.03;;;2.73;;
8889;SDS011;4481;43.406;24.454;2023-04-03T00:17:18;4.03;;;3.20;;
8889;SDS011;4481;43.406;24.454;2023-04-03T00:19:44;4.57;;;3.10;;
8889;SDS011;4481;43.406;24.454;2023-04-03T00:22:11;3.40;;;3.10;;
8889;SDS011;4481;43.406;24.454;2023-04-03T00:24:37;2.90;;;2.63;;
8889;SDS011;4481;43.406;24.454;2023-04-03T00:27:03;3.40;;;3.10;;
8889;SDS011;4481;43.406;24.454;2023-04-03T00:29:29;3.03;;;2.53;;
8889;SDS011;4481;43.406;24.454;2023-04-03T00:31:55;3.67;;;2.87;;
8889;SDS011;4481;43.406;24.454;2023-04-03T00:34:21;2.80;;;2.60;;
8889;SDS011;4481;43.406;24.454;2023-04-03T00:36:47;2.60;;;2.40;;
8889;SDS011;4481;43.406;24.454;2023-04-03T00:39:14;3.20;;;2.87;;
8889;SDS011;4481;43.406;24.454;2023-04-03T00:41:40;3.77;;;2.70;;
8889;SDS011;4481;43.406;24.454;2023-04-03T00:44:22;3.10;;;2.80;;
8889;SDS011;4481;43.406;24.454;2023-04-03T00:47:26;3.30;;;3.00;;
8889;SDS011;4481;43.406;24.454;2023-04-03T00:49:53;3.87;;;3.03;;
8889;SDS011;4481;43.406;24.454;2023-04-03T00:52:21;3.57;;;2.87;;
8889;SDS011;4481;43.406;24.454;2023-04-03T00:54:52;3.23;;;3.00;;
8889;SDS011;4481;43.406;24.454;2023-04-03T00:57:22;4.43;;;3.10;;
8889;SDS011;4481;43.406;24.454;2023-04-03T00:59:50;3.50;;;3.20;;
8889;SDS011;4481;43.406;24.454;2023-04-03T01:02:21;4.27;;;3.40;;
8889;SDS011;4481;43.406;24.454;2023-04-03T01:04:47;3.50;;;3.20;;
8889;SDS011;4481;43.406;24.454;2023-04-03T01:07:14;3.90;;;3.43;;
8889;SDS011;4481;43.406;24.454;2023-04-03T01:09:44;3.70;;;3.37;;
8889;SDS011;4481;43.406;24.454;2023-04-03T01:12:13;3.20;;;2.90;;
8889;SDS011;4481;43.406;24.454;2023-04-03T01:14:41;3.80;;;3.30;;
8889;SDS011;4481;43.406;24.454;2023-04-03T01:17:21;3.60;;;2.73;;
8889;SDS011;4481;43.406;24.454;2023-04-03T01:19:54;4.60;;;3.20;;
8889;SDS011;4481;43.406;24.454;2023-04-03T01:22:41;3.17;;;2.87;;
8889;SDS011;4481;43.406;24.454;2023-04-03T01:25:14;3.00;;;2.70;;
8889;SDS011;4481;43.406;24.454;2023-04-03T01:27:41;6.03;;;3.10;;
8889;SDS011;4481;43.406;24.454;2023-04-03T01:30:08;3.50;;;3.10;;
8889;SDS011;4481;43.406;24.454;2023-04-03T01:32:36;3.70;;;3.30;;
8889;SDS011;4481;43.406;24.454;2023-04-03T01:35:02;4.67;;;3.40;;
8889;SDS011;4481;43.406;24.454;2023-04-03T01:37:28;3.90;;;3.27;;
8889;SDS011;4481;43.406;24.454;2023-04-03T01:39:54;4.17;;;3.53;;
8889;SDS011;4481;43.406;24.454;2023-04-03T01:42:21;3.37;;;3.07;;
8889;SDS011;4481;43.406;24.454;2023-04-03T01:44:47;3.87;;;3.37;;
8889;SDS011;4481;43.406;24.454;2023-04-03T01:47:13;3.80;;;3.10;;
8889;SDS011;4481;43.406;24.454;2023-04-03T01:49:40;4.13;;;3.00;;
8889;SDS011;4481;43.406;24.454;2023-04-03T01:52:06;3.13;;;2.83;;
8889;SDS011;4481;43.406;24.454;2023-04-03T01:54:32;3.40;;;3.10;;
8889;SDS011;4481;43.406;24.454;2023-04-03T01:56:58;4.53;;;3.40;;
8889;SDS011;4481;43.406;24.454;2023-04-03T01:59:24;3.47;;;3.10;;
8889;SDS011;4481;43.406;24.454;2023-04-03T02:01:50;3.40;;;2.73;;
8889;SDS011;4481;43.406;24.454;2023-04-03T02:04:17;3.57;;;3.27;;
8889;SDS011;4481;43.406;24.454;2023-04-03T02:06:43;3.47;;;2.97;;
8889;SDS011;4481;43.406;24.454;2023-04-03T02:09:10;5.13;;;3.07;;
8889;SDS011;4481;43.406;24.454;2023-04-03T02:11:36;3.90;;;3.37;;
8889;SDS011;4481;43.406;24.454;2023-04-03T02:14:02;3.80;;;2.87;;
8889;SDS011;4481;43.406;24.454;2023-04-03T02:16:28;3.60;;;2.63;;
8889;SDS011;4481;43.406;24.454;2023-04-03T02:18:55;3.97;;;2.90;;
8889;SDS011;4481;43.406;24.454;2023-04-03T02:21:22;3.90;;;3.10;;
8889;SDS011;4481;43.406;24.454;2023-04-03T02:23:49;6.70;;;2.90;;
8889;SDS011;4481;43.406;24.454;2023-04-03T02:26:15;3.33;;;2.80;;
8889;SDS011;4481;43.406;24.454;2023-04-03T02:28:43;5.33;;;3.00;;
8889;SDS011;4481;43.406;24.454;2023-04-03T02:31:09;3.43;;;2.60;;
8889;SDS011;4481;43.406;24.454;2023-04-03T02:33:36;3.03;;;2.73;;
8889;SDS011;4481;43.406;24.454;2023-04-03T02:36:03;3.00;;;2.70;;
8889;SDS011;4481;43.406;24.454;2023-04-03T02:38:30;5.13;;;2.93;;
8889;SDS011;4481;43.406;24.454;2023-04-03T02:41:00;4.27;;;2.80;;
8889;SDS011;4481;43.406;24.454;2023-04-03T02:43:26;3.73;;;2.87;;
8889;SDS011;4481;43.406;24.454;2023-04-03T02:45:52;3.47;;;3.10;;
8889;SDS011;4481;43.406;24.454;2023-04-03T02:48:18;4.10;;;3.23;;
8889;SDS011;4481;43.406;24.454;2023-04-03T02:50:45;4.20;;;3.50;;
8889;SDS011;4481;43.406;24.454;2023-04-03T02:53:11;4.73;;;3.30;;
8889;SDS011;4481;43.406;24.454;2023-04-03T02:55:37;5.00;;;3.37;;
8889;SDS011;4481;43.406;24.454;2023-04-03T02:58:04;2.93;;;2.67;;
8889;SDS011;4481;43.406;24.454;2023-04-03T03:00:30;5.50;;;3.27;;
8889;SDS011;4481;43.406;24.454;2023-04-03T03:02:56;3.33;;;2.87;;
8889;SDS011;4481;43.406;24.454;2023-04-03T03:05:22;2.97;;;2.67;;
8889;SDS011;4481;43.406;24.454;2023-04-03T03:07:48;5.47;;;2.73;;
8889;SDS011;4481;43.406;24.454;2023-04-03T03:10:14;3.87;;;2.60;;
8889;SDS011;4481;43.406;24.454;2023-04-03T03:12:41;4.23;;;3.37;;
8889;SDS011;4481;43.406;24.454;2023-04-03T03:15:08;4.40;;;2.83;;
8889;SDS011;4481;43.406;24.454;2023-04-03T03:17:34;3.17;;;2.87;;
8889;SDS011;4481;43.406;24.454;2023-04-03T03:20:01;4.60;;;3.13;;
8889;SDS011;4481;43.406;24.454;2023-04-03T03:22:27;3.37;;;3.07;;
8889;SDS011;4481;43.406;24.454;2023-04-03T03:24:54;4.00;;;3.50;;
8889;SDS011;4481;43.406;24.454;2023-04-03T03:27:20;3.13;;;2.80;;
8889;SDS011;4481;43.406;24.454;2023-04-03T03:29:46;3.37;;;3.00;;
8889;SDS011;4481;43.406;24.454;2023-04-03T03:32:13;3.83;;;3.13;;
8889;SDS011;4481;43.406;24.454;2023-04-03T03:34:39;7.13;;;3.83;;
8889;SDS011;4481;43.406;24.454;2023-04-03T03:37:05;3.13;;;2.83;;
8889;SDS011;4481;43.406;24.454;2023-04-03T03:39:32;3.33;;;3.03;;
8889;SDS011;4481;43.406;24.454;2023-04-03T03:41:58;3.50;;;3.10;;
8889;SDS011;4481;43.406;24.454;2023-04-03T03:44:24;4.47;;;3.20;;
8889;SDS011;4481;43.406;24.454;2023-04-03T03:46:50;3.30;;;3.00;;
8889;SDS011;4481;43.406;24.454;2023-04-03T03:49:17;5.00;;;3.17;;
8889;SDS011;4481;43.406;24.454;2023-04-03T03:51:43;3.87;;;3.07;;
8889;SDS011;4481;43.406;24.454;2023-04-03T03:54:09;3.50;;;3.20;;
8889;SDS011;4481;43.406;24.454;2023-04-03T03:56:36;3.27;;;2.90;;
8889;SDS011;4481;43.406;24.454;2023-04-03T03:59:02;3.43;;;2.70;;
8889;SDS011;4481;43.406;24.454;2023-04-03T04:01:28;4.40;;;2.90;;
8889;SDS011;4481;43.406;24.454;2023-04-03T04:03:55;2.53;;;2.20;;
8889;SDS011;4481;43.406;24.454;2023-04-03T04:06:21;4.10;;;3.23;;
8889;SDS011;4481;43.406;24.454;2023-04-03T04:08:48;3.47;;;3.17;;
8889;SDS011;4481;43.406;24.454;2023-04-03T04:11:14;3.17;;;2.87;;
8889;SDS011;4481;43.406;24.454;2023-04-03T04:13:40;3.73;;;2.97;;
8889;SDS011;4481;43.406;24.454;2023-04-03T04:16:07;6.83;;;3.50;;
8889;SDS011;4481;43.406;24.454;2023-04-03T04:18:33;4.57;;;3.13;;
8889;SDS011;4481;43.406;24.454;2023-04-03T04:20:59;4.83;;;3.40;;
8889;SDS011;4481;43.406;24.454;2023-04-03T04:23:26;4.93;;;3.20;;
8889;SDS011;4481;43.406;24.454;2023-04-03T04:25:52;3.37;;;2.70;;
8889;SDS011;4481;43.406;24.454;2023-04-03T04:28:19;6.70;;;3.13;;
8889;SDS011;4481;43.406;24.454;2023-04-03T04:30:45;4.90;;;3.50;;
8889;SDS011;4481;43.406;24.454;2023-04-03T04:33:11;7.20;;;4.37;;
8889;SDS011;4481;43.406;24.454;2023-04-03T04:35:39;4.73;;;4.17;;
8889;SDS011;4481;43.406;24.454;2023-04-03T04:38:07;5.63;;;4.47;;
8889;SDS011;4481;43.406;24.454;2023-04-03T04:40:34;6.93;;;5.57;;
8889;SDS011;4481;43.406;24.454;2023-04-03T04:43:00;8.93;;;5.57;;
8889;SDS011;4481;43.406;24.454;2023-04-03T04:45:27;6.23;;;4.53;;
8889;SDS011;4481;43.406;24.454;2023-04-03T04:47:54;5.17;;;4.07;;
8889;SDS011;4481;43.406;24.454;2023-04-03T04:50:21;5.40;;;4.47;;
8889;SDS011;4481;43.406;24.454;2023-04-03T04:52:47;4.97;;;4.40;;
8889;SDS011;4481;43.406;24.454;2023-04-03T04:55:14;6.57;;;4.50;;
8889;SDS011;4481;43.406;24.454;2023-04-03T04:57:41;6.10;;;4.43;;
8889;SDS011;4481;43.406;24.454;2023-04-03T05:00:07;4.70;;;4.20;;
8889;SDS011;4481;43.406;24.454;2023-04-03T05:02:34;6.60;;;4.50;;
8889;SDS011;4481;43.406;24.454;2023-04-03T05:05:00;5.47;;;4.50;;
8889;SDS011;4481;43.406;24.454;2023-04-03T05:07:26;3.83;;;3.33;;
8889;SDS011;4481;43.406;24.454;2023-04-03T05:09:52;5.60;;;4.10;;
8889;SDS011;4481;43.406;24.454;2023-04-03T05:12:19;5.60;;;4.27;;
8889;SDS011;4481;43.406;24.454;2023-04-03T05:14:45;5.60;;;3.50;;
8889;SDS011;4481;43.406;24.454;2023-04-03T05:17:12;4.10;;;3.70;;
8889;SDS011;4481;43.406;24.454;2023-04-03T05:19:39;5.20;;;3.50;;
8889;SDS011;4481;43.406;24.454;2023-04-03T05:22:05;3.60;;;3.27;;
8889;SDS011;4481;43.406;24.454;2023-04-03T05:24:31;3.40;;;3.10;;
8889;SDS011;4481;43.406;24.454;2023-04-03T05:26:58;4.00;;;2.70;;
8889;SDS011;4481;43.406;24.454;2023-04-03T05:29:24;2.80;;;2.53;;
8889;SDS011;4481;43.406;24.454;2023-04-03T05:31:51;3.10;;;2.80;;
8889;SDS011;4481;43.406;24.454;2023-04-03T05:34:17;3.73;;;3.43;;
8889;SDS011;4481;43.406;24.454;2023-04-03T05:36:43;4.67;;;3.43;;
8889;SDS011;4481;43.406;24.454;2023-04-03T05:39:10;4.10;;;3.70;;
8889;SDS011;4481;43.406;24.454;2023-04-03T05:41:36;5.33;;;3.77;;
8889;SDS011;4481;43.406;24.454;2023-04-03T05:44:02;4.17;;;3.77;;
8889;SDS011;4481;43.406;24.454;2023-04-03T05:46:28;6.17;;;3.90;;
8889;SDS011;4481;43.406;24.454;2023-04-03T05:48:55;7.70;;;4.77;;
8889;SDS011;4481;43.406;24.454;2023-04-03T05:51:22;5.87;;;4.60;;
8889;SDS011;4481;43.406;24.454;2023-04-03T05:53:51;4.27;;;3.87;;
8889;SDS011;4481;43.406;24.454;2023-04-03T05:56:22;4.80;;;3.80;;
8889;SDS011;4481;43.406;24.454;2023-04-03T05:58:48;5.27;;;3.30;;
8889;SDS011;4481;43.406;24.454;2023-04-03T06:01:15;6.80;;;3.17;;
8889;SDS011;4481;43.406;24.454;2023-04-03T06:03:41;4.43;;;2.83;;
8889;SDS011;4481;43.406;24.454;2023-04-03T06:06:10;3.17;;;2.70;;
8889;SDS011;4481;43.406;24.454;2023-04-03T06:08:39;4.20;;;2.87;;
8889;SDS011;4481;43.406;24.454;2023-04-03T06:11:05;2.57;;;2.37;;
8889;SDS011;4481;43.406;24.454;2023-04-03T06:13:31;2.43;;;2.20;;
8889;SDS011;4481;43.406;24.454;2023-04-03T06:15:58;4.20;;;3.30;;
8889;SDS011;4481;43.406;24.454;2023-04-03T06:18:24;2.93;;;2.63;;
8889;SDS011;4481;43.406;24.454;2023-04-03T06:20:50;2.67;;;2.27;;
8889;SDS011;4481;43.406;24.454;2023-04-03T06:23:17;3.37;;;2.70;;
8889;SDS011;4481;43.406;24.454;2023-04-03T06:25:43;2.40;;;2.20;;
8889;SDS011;4481;43.406;24.454;2023-04-03T06:28:09;2.60;;;2.20;;
8889;SDS011;4481;43.406;24.454;2023-04-03T06:30:36;3.77;;;2.67;;
8889;SDS011;4481;43.406;24.454;2023-04-03T06:33:02;2.80;;;2.57;;
8889;SDS011;4481;43.406;24.454;2023-04-03T06:35:28;6.47;;;2.53;;
8889;SDS011;4481;43.406;24.454;2023-04-03T06:37:55;3.63;;;2.47;;
8889;SDS011;4481;43.406;24.454;2023-04-03T06:40:23;4.87;;;2.60;;
8889;SDS011;4481;43.406;24.454;2023-04-03T06:42:50;3.23;;;2.40;;
8889;SDS011;4481;43.406;24.454;2023-04-03T06:45:16;3.33;;;2.73;;
8889;SDS011;4481;43.406;24.454;2023-04-03T06:47:43;2.73;;;2.53;;
8889;SDS011;4481;43.406;24.454;2023-04-03T06:50:10;2.73;;;2.43;;
8889;SDS011;4481;43.406;24.454;2023-04-03T06:52:39;2.43;;;1.90;;
8889;SDS011;4481;43.406;24.454;2023-04-03T06:55:05;1.67;;;1.57;;
8889;SDS011;4481;43.406;24.454;2023-04-03T06:57:33;1.57;;;1.47;;
8889;SDS011;4481;43.406;24.454;2023-04-03T06:59:59;1.97;;;1.77;;
8889;SDS011;4481;43.406;24.454;2023-04-03T07:02:25;3.93;;;1.87;;
8889;SDS011;4481;43.406;24.454;2023-04-03T07:04:52;3.20;;;1.80;;
8889;SDS011;4481;43.406;24.454;2023-04-03T07:07:18;3.97;;;1.70;;
8889;SDS011;4481;43.406;24.454;2023-04-03T07:09:44;2.60;;;1.50;;
8889;SDS011;4481;43.406;24.454;2023-04-03T07:12:11;1.70;;;1.60;;
8889;SDS011;4481;43.406;24.454;2023-04-03T07:14:38;1.90;;;1.73;;
8889;SDS011;4481;43.406;24.454;2023-04-03T07:17:05;1.83;;;1.70;;
8889;SDS011;4481;43.406;24.454;2023-04-03T07:19:31;2.00;;;1.80;;
8889;SDS011;4481;43.406;24.454;2023-04-03T07:21:57;2.37;;;1.77;;
8889;SDS011;4481;43.406;24.454;2023-04-03T07:24:23;2.30;;;2.10;;
8889;SDS011;4481;43.406;24.454;2023-04-03T07:26:50;3.93;;;1.83;;
8889;SDS011;4481;43.406;24.454;2023-04-03T07:29:17;2.47;;;1.90;;
8889;SDS011;4481;43.406;24.454;2023-04-03T07:31:44;3.50;;;2.60;;
8889;SDS011;4481;43.406;24.454;2023-04-03T07:34:10;2.83;;;2.20;;
8889;SDS011;4481;43.406;24.454;2023-04-03T07:36:36;2.57;;;2.37;;
8889;SDS011;4481;43.406;24.454;2023-04-03T07:39:03;2.20;;;2.00;;
8889;SDS011;4481;43.406;24.454;2023-04-03T07:41:29;2.40;;;2.00;;
8889;SDS011;4481;43.406;24.454;2023-04-03T07:43:55;2.70;;;2.50;;
8889;SDS011;4481;43.406;24.454;2023-04-03T07:46:22;2.30;;;2.00;;
8889;SDS011;4481;43.406;24.454;2023-04-03T07:48:49;2.50;;;2.30;;
8889;SDS011;4481;43.406;24.454;2023-04-03T07:51:15;2.03;;;1.90;;
8889;SDS011;4481;43.406;24.454;2023-04-03T07:53:41;2.27;;;2.07;;
8889;SDS011;4481;43.406;24.454;2023-04-03T07:56:08;2.57;;;2.37;;
8889;SDS011;4481;43.406;24.454;2023-04-03T07:58:34;2.63;;;2.40;;
8889;SDS011;4481;43.406;24.454;2023-04-03T08:01:02;3.13;;;2.60;;
8889;SDS011;4481;43.406;24.454;2023-04-03T08:03:28;2.60;;;2.40;;
8889;SDS011;4481;43.406;24.454;2023-04-03T08:06:00;2.90;;;2.70;;
8889;SDS011;4481;43.406;24.454;2023-04-03T08:08:28;2.87;;;2.63;;
8889;SDS011;4481;43.406;24.454;2023-04-03T08:10:55;3.67;;;2.77;;
8889;SDS011;4481;43.406;24.454;2023-04-03T08:13:23;2.77;;;2.57;;
8889;SDS011;4481;43.406;24.454;2023-04-03T08:15:49;2.53;;;2.33;;
8889;SDS011;4481;43.406;24.454;2023-04-03T08:18:16;2.70;;;2.40;;
8889;SDS011;4481;43.406;24.454;2023-04-03T08:20:43;3.97;;;2.77;;
8889;SDS011;4481;43.406;24.454;2023-04-03T08:23:10;3.00;;;2.77;;
8889;SDS011;4481;43.406;24.454;2023-04-03T08:25:37;3.07;;;2.77;;
8889;SDS011;4481;43.406;24.454;2023-04-03T08:28:03;2.47;;;2.27;;
8889;SDS011;4481;43.406;24.454;2023-04-03T08:30:30;3.10;;;2.80;;
8889;SDS011;4481;43.406;24.454;2023-04-03T08:32:56;2.77;;;2.53;;
8889;SDS011;4481;43.406;24.454;2023-04-03T08:35:22;2.90;;;2.70;;
8889;SDS011;4481;43.406;24.454;2023-04-03T08:37:48;3.00;;;2.53;;
8889;SDS011;4481;43.406;24.454;2023-04-03T08:40:15;5.03;;;2.40;;
8889;SDS011;4481;43.406;24.454;2023-04-03T08:42:45;2.03;;;1.93;;
8889;SDS011;4481;43.406;24.454;2023-04-03T08:45:22;2.67;;;2.30;;
8889;SDS011;4481;43.406;24.454;2023-04-03T08:48:00;2.40;;;2.20;;
8889;SDS011;4481;43.406;24.454;2023-04-03T08:50:33;2.57;;;2.37;;
8889;SDS011;4481;43.406;24.454;2023-04-03T08:53:05;2.80;;;2.60;;
8889;SDS011;4481;43.406;24.454;2023-04-03T08:55:39;5.00;;;2.97;;
8889;SDS011;4481;43.406;24.454;2023-04-03T08:58:10;3.43;;;3.00;;
8889;SDS011;4481;43.406;24.454;2023-04-03T09:00:43;5.93;;;2.47;;
8889;SDS011;4481;43.406;24.454;2023-04-03T09:03:12;3.17;;;2.83;;
8889;SDS011;4481;43.406;24.454;2023-04-03T09:05:40;4.67;;;3.00;;
8889;SDS011;4481;43.406;24.454;2023-04-03T09:08:14;3.67;;;3.13;;
8889;SDS011;4481;43.406;24.454;2023-04-03T09:10:47;4.50;;;2.43;;
8889;SDS011;4481;43.406;24.454;2023-04-03T09:13:18;2.30;;;2.10;;
8889;SDS011;4481;43.406;24.454;2023-04-03T09:15:51;2.33;;;2.13;;
8889;SDS011;4481;43.406;24.454;2023-04-03T09:18:19;2.67;;;2.47;;
8889;SDS011;4481;43.406;24.454;2023-04-03T09:20:49;2.27;;;2.07;;
8889;SDS011;4481;43.406;24.454;2023-04-03T09:23:24;2.57;;;2.37;;
8889;SDS011;4481;43.406;24.454;2023-04-03T09:25:57;2.13;;;1.93;;
8889;SDS011;4481;43.406;24.454;2023-04-03T09:28:30;2.50;;;2.30;;
8889;SDS011;4481;43.406;24.454;2023-04-03T09:30:59;2.03;;;1.83;;
8889;SDS011;4481;43.406;24.454;2023-04-03T09:33:26;2.37;;;2.03;;
8889;SDS011;4481;43.406;24.454;2023-04-03T09:35:54;3.00;;;2.63;;
8889;SDS011;4481;43.406;24.454;2023-04-03T09:38:20;2.97;;;2.20;;
8889;SDS011;4481;43.406;24.454;2023-04-03T09:40:48;1.97;;;1.87;;
8889;SDS011;4481;43.406;24.454;2023-04-03T09:43:21;2.20;;;2.00;;
8889;SDS011;4481;43.406;24.454;2023-04-03T09:45:50;2.07;;;1.97;;
8889;SDS011;4481;43.406;24.454;2023-04-03T09:48:17;2.43;;;1.93;;
8889;SDS011;4481;43.406;24.454;2023-04-03T09:50:59;2.33;;;2.13;;
8889;SDS011;4481;43.406;24.454;2023-04-03T09:53:28;2.17;;;1.97;;
8889;SDS011;4481;43.406;24.454;2023-04-03T09:55:56;2.70;;;2.20;;
8889;SDS011;4481;43.406;24.454;2023-04-03T09:58:24;1.93;;;1.60;;
8889;SDS011;4481;43.406;24.454;2023-04-03T10:00:55;1.70;;;1.60;;
8889;SDS011;4481;43.406;24.454;2023-04-03T10:03:24;1.90;;;1.60;;
8889;SDS011;4481;43.406;24.454;2023-04-03T10:05:53;1.60;;;1.50;;
8889;SDS011;4481;43.406;24.454;2023-04-03T10:08:22;3.20;;;1.57;;
8889;SDS011;4481;43.406;24.454;2023-04-03T10:11:05;1.80;;;1.70;;
8889;SDS011;4481;43.406;24.454;2023-04-03T10:13:42;5.00;;;2.10;;
8889;SDS011;4481;43.406;24.454;2023-04-03T10:16:16;1.80;;;1.70;;
8889;SDS011;4481;43.406;24.454;2023-04-03T10:18:44;1.70;;;1.60;;
8889;SDS011;4481;43.406;24.454;2023-04-03T10:21:13;1.90;;;1.67;;
8889;SDS011;4481;43.406;24.454;2023-04-03T10:23:57;1.40;;;1.30;;
8889;SDS011;4481;43.406;24.454;2023-04-03T10:26:36;2.57;;;1.60;;
8889;SDS011;4481;43.406;24.454;2023-04-03T10:29:13;1.70;;;1.60;;
8889;SDS011;4481;43.406;24.454;2023-04-03T10:31:51;2.13;;;1.73;;
8889;SDS011;4481;43.406;24.454;2023-04-03T10:34:28;1.80;;;1.60;;
8889;SDS011;4481;43.406;24.454;2023-04-03T10:36:59;2.03;;;1.77;;
8889;SDS011;4481;43.406;24.454;2023-04-03T10:39:33;1.60;;;1.50;;
8889;SDS011;4481;43.406;24.454;2023-04-03T10:42:07;2.17;;;1.63;;
8889;SDS011;4481;43.406;24.454;2023-04-03T10:44:42;1.77;;;1.67;;
8889;SDS011;4481;43.406;24.454;2023-04-03T10:47:21;1.80;;;1.70;;
8889;SDS011;4481;43.406;24.454;2023-04-03T10:49:55;1.80;;;1.70;;
8889;SDS011;4481;43.406;24.454;2023-04-03T10:52:31;1.80;;;1.70;;
8889;SDS011;4481;43.406;24.454;2023-04-03T10:55:14;1.87;;;1.70;;
8889;SDS011;4481;43.406;24.454;2023-04-03T10:57:50;2.23;;;1.83;;
8889;SDS011;4481;43.406;24.454;2023-04-03T11:00:18;2.40;;;2.20;;
8889;SDS011;4481;43.406;24.454;2023-04-03T11:02:49;2.50;;;1.77;;
8889;SDS011;4481;43.406;24.454;2023-04-03T11:05:21;2.20;;;1.80;;
8889;SDS011;4481;43.406;24.454;2023-04-03T11:07:55;3.67;;;1.77;;
8889;SDS011;4481;43.406;24.454;2023-04-03T11:10:28;2.10;;;1.90;;
8889;SDS011;4481;43.406;24.454;2023-04-03T11:13:01;1.90;;;1.80;;
8889;SDS011;4481;43.406;24.454;2023-04-03T11:15:35;1.70;;;1.60;;
8889;SDS011;4481;43.406;24.454;2023-04-03T11:18:02;9.33;;;2.27;;
8889;SDS011;4481;43.406;24.454;2023-04-03T11:20:32;1.70;;;1.60;;
8889;SDS011;4481;43.406;24.454;2023-04-03T11:23:03;2.17;;;1.97;;
8889;SDS011;4481;43.406;24.454;2023-04-03T11:25:32;2.50;;;2.17;;
8889;SDS011;4481;43.406;24.454;2023-04-03T11:28:02;2.93;;;1.67;;
8889;SDS011;4481;43.406;24.454;2023-04-03T11:30:30;1.77;;;1.63;;
8889;SDS011;4481;43.406;24.454;2023-04-03T11:35:49;2.97;;;2.03;;
8889;SDS011;4481;43.406;24.454;2023-04-03T11:38:21;2.70;;;2.10;;
8889;SDS011;4481;43.406;24.454;2023-04-03T11:40:52;2.00;;;1.80;;
8889;SDS011;4481;43.406;24.454;2023-04-03T11:43:21;2.73;;;2.43;;
8889;SDS011;4481;43.406;24.454;2023-04-03T11:45:52;6.03;;;2.60;;
8889;SDS011;4481;43.406;24.454;2023-04-03T11:51:38;2.20;;;1.97;;
8889;SDS011;4481;43.406;24.454;2023-04-03T12:06:41;2.27;;;2.07;;
8889;SDS011;4481;43.406;24.454;2023-04-03T12:09:04;1.83;;;1.73;;
8889;SDS011;4481;43.406;24.454;2023-04-03T12:11:48;1.90;;;1.70;;
8889;SDS011;4481;43.406;24.454;2023-04-03T12:14:15;2.43;;;2.10;;
8889;SDS011;4481;43.406;24.454;2023-04-03T12:16:42;5.63;;;1.80;;
8889;SDS011;4481;43.406;24.454;2023-04-03T12:19:30;2.03;;;1.73;;
8889;SDS011;4481;43.406;24.454;2023-04-03T12:22:09;2.20;;;1.90;;
8889;SDS011;4481;43.406;24.454;2023-04-03T12:24:38;2.53;;;1.70;;
8889;SDS011;4481;43.406;24.454;2023-04-03T12:27:11;3.50;;;2.57;;
8889;SDS011;4481;43.406;24.454;2023-04-03T12:29:46;2.50;;;2.10;;
8889;SDS011;4481;43.406;24.454;2023-04-03T12:32:22;2.00;;;1.80;;
8889;SDS011;4481;43.406;24.454;2023-04-03T12:35:04;2.23;;;2.03;;
8889;SDS011;4481;43.406;24.454;2023-04-03T12:37:48;2.70;;;2.00;;
8889;SDS011;4481;43.406;24.454;2023-04-03T12:40:27;2.57;;;2.17;;
8889;SDS011;4481;43.406;24.454;2023-04-03T12:45:58;5.33;;;2.33;;
8889;SDS011;4481;43.406;24.454;2023-04-03T12:48:29;2.70;;;2.50;;
8889;SDS011;4481;43.406;24.454;2023-04-03T12:50:57;3.90;;;2.17;;
8889;SDS011;4481;43.406;24.454;2023-04-03T12:53:26;3.53;;;2.40;;
8889;SDS011;4481;43.406;24.454;2023-04-03T12:55:55;2.70;;;2.33;;
8889;SDS011;4481;43.406;24.454;2023-04-03T12:58:22;3.97;;;2.20;;
8889;SDS011;4481;43.406;24.454;2023-04-03T13:00:59;2.60;;;2.40;;
8889;SDS011;4481;43.406;24.454;2023-04-03T13:03:27;2.20;;;2.00;;
8889;SDS011;4481;43.406;24.454;2023-04-03T13:05:54;3.87;;;2.83;;
8889;SDS011;4481;43.406;24.454;2023-04-03T13:08:24;4.20;;;2.37;;
8889;SDS011;4481;43.406;24.454;2023-04-03T13:10:53;2.37;;;2.10;;
8889;SDS011;4481;43.406;24.454;2023-04-03T13:13:23;3.50;;;2.10;;
8889;SDS011;4481;43.406;24.454;2023-04-03T13:15:49;2.23;;;2.03;;
8889;SDS011;4481;43.406;24.454;2023-04-03T13:18:23;2.50;;;2.30;;
8889;SDS011;4481;43.406;24.454;2023-04-03T13:20:51;2.97;;;2.30;;
8889;SDS011;4481;43.406;24.454;2023-04-03T13:23:18;2.53;;;2.33;;
8889;SDS011;4481;43.406;24.454;2023-04-03T13:25:46;3.60;;;2.70;;
8889;SDS011;4481;43.406;24.454;2023-04-03T13:28:15;3.80;;;3.07;;
8889;SDS011;4481;43.406;24.454;2023-04-03T13:30:53;2.83;;;2.53;;
8889;SDS011;4481;43.406;24.454;2023-04-03T13:33:23;3.77;;;3.00;;
8889;SDS011;4481;43.406;24.454;2023-04-03T13:35:54;2.80;;;2.60;;
8889;SDS011;4481;43.406;24.454;2023-04-03T13:38:23;4.23;;;2.60;;
8889;SDS011;4481;43.406;24.454;2023-04-03T13:40:51;3.63;;;3.20;;
8889;SDS011;4481;43.406;24.454;2023-04-03T13:43:20;3.13;;;2.80;;
8889;SDS011;4481;43.406;24.454;2023-04-03T13:45:55;6.97;;;3.33;;
8889;SDS011;4481;43.406;24.454;2023-04-03T13:48:24;3.97;;;2.57;;
8889;SDS011;4481;43.406;24.454;2023-04-03T13:50:53;3.37;;;2.80;;
8889;SDS011;4481;43.406;24.454;2023-04-03T13:53:24;9.40;;;2.93;;
8889;SDS011;4481;43.406;24.454;2023-04-03T13:55:53;2.67;;;2.33;;
8889;SDS011;4481;43.406;24.454;2023-04-03T13:58:27;5.13;;;2.53;;
8889;SDS011;4481;43.406;24.454;2023-04-03T14:00:55;2.70;;;2.50;;
8889;SDS011;4481;43.406;24.454;2023-04-03T14:03:25;3.17;;;2.87;;
8889;SDS011;4481;43.406;24.454;2023-04-03T14:05:55;3.47;;;2.83;;
8889;SDS011;4481;43.406;24.454;2023-04-03T14:08:21;4.23;;;2.40;;
8889;SDS011;4481;43.406;24.454;2023-04-03T14:10:48;3.07;;;2.53;;
8889;SDS011;4481;43.406;24.454;2023-04-03T14:13:15;4.83;;;2.20;;
8889;SDS011;4481;43.406;24.454;2023-04-03T14:15:46;3.90;;;2.27;;
8889;SDS011;4481;43.406;24.454;2023-04-03T14:18:14;5.37;;;2.73;;
8889;SDS011;4481;43.406;24.454;2023-04-03T14:20:43;3.03;;;2.67;;
8889;SDS011;4481;43.406;24.454;2023-04-03T14:23:09;4.20;;;3.13;;
8889;SDS011;4481;43.406;24.454;2023-04-03T14:25:35;2.90;;;2.60;;
8889;SDS011;4481;43.406;24.454;2023-04-03T14:28:06;4.00;;;3.07;;
8889;SDS011;4481;43.406;24.454;2023-04-03T14:30:41;2.60;;;2.40;;
8889;SDS011;4481;43.406;24.454;2023-04-03T14:33:09;2.37;;;2.17;;
8889;SDS011;4481;43.406;24.454;2023-04-03T14:35:38;3.60;;;2.77;;
8889;SDS011;4481;43.406;24.454;2023-04-03T14:38:05;3.67;;;2.67;;
8889;SDS011;4481;43.406;24.454;2023-04-03T14:40:37;3.00;;;2.60;;
8889;SDS011;4481;43.406;24.454;2023-04-03T14:43:05;3.73;;;3.30;;
8889;SDS011;4481;43.406;24.454;2023-04-03T14:45:31;3.73;;;3.33;;
8889;SDS011;4481;43.406;24.454;2023-04-03T14:47:57;3.23;;;2.93;;
8889;SDS011;4481;43.406;24.454;2023-04-03T14:50:26;3.43;;;2.90;;
8889;SDS011;4481;43.406;24.454;2023-04-03T14:52:53;5.27;;;4.10;;
8889;SDS011;4481;43.406;24.454;2023-04-03T14:55:22;8.40;;;6.40;;
8889;SDS011;4481;43.406;24.454;2023-04-03T14:57:50;6.27;;;3.20;;
8889;SDS011;4481;43.406;24.454;2023-04-03T15:00:17;3.63;;;2.67;;
8889;SDS011;4481;43.406;24.454;2023-04-03T15:02:45;2.40;;;2.20;;
8889;SDS011;4481;43.406;24.454;2023-04-03T15:05:12;3.07;;;2.53;;
8889;SDS011;4481;43.406;24.454;2023-04-03T15:07:41;3.60;;;3.00;;
8889;SDS011;4481;43.406;24.454;2023-04-03T15:10:14;2.87;;;2.27;;
8889;SDS011;4481;43.406;24.454;2023-04-03T15:12:43;2.90;;;2.70;;
8889;SDS011;4481;43.406;24.454;2023-04-03T15:15:10;4.70;;;3.10;;
8889;SDS011;4481;43.406;24.454;2023-04-03T15:17:37;3.43;;;2.60;;
8889;SDS011;4481;43.406;24.454;2023-04-03T15:20:05;6.13;;;2.60;;
8889;SDS011;4481;43.406;24.454;2023-04-03T15:22:38;2.67;;;2.10;;
8889;SDS011;4481;43.406;24.454;2023-04-03T15:25:05;2.63;;;2.00;;
8889;SDS011;4481;43.406;24.454;2023-04-03T15:27:32;2.47;;;2.13;;
8889;SDS011;4481;43.406;24.454;2023-04-03T15:29:58;2.27;;;2.03;;